sensor_id;sensor_type;location;lat;lon;timestamp;temperature;humidity
23283;DHT22;11810;51.178;3.878;2022-10-16T00:01:08;14.50;99.90
23283;DHT22;11810;51.178;3.878;2022-10-16T00:03:34;14.40;99.90
23283;DHT22;11810;51.178;3.878;2022-10-16T00:06:01;14.60;99.90
23283;DHT22;11810;51.178;3.878;2022-10-16T00:08:27;14.50;99.90
23283;DHT22;11810;51.178;3.878;2022-10-16T00:10:59;14.60;99.90
23283;DHT22;11810;51.178;3.878;2022-10-16T00:13:25;14.70;99.90
23283;DHT22;11810;51.178;3.878;2022-10-16T00:15:57;14.60;99.90
23283;DHT22;11810;51.178;3.878;2022-10-16T00:18:24;14.60;99.90
23283;DHT22;11810;51.178;3.878;2022-10-16T00:20:50;14.60;99.90
23283;DHT22;11810;51.178;3.878;2022-10-16T00:23:16;14.50;99.90
23283;DHT22;11810;51.178;3.878;2022-10-16T00:25:42;14.30;99.90
23283;DHT22;11810;51.178;3.878;2022-10-16T00:28:08;14.10;99.90
23283;DHT22;11810;51.178;3.878;2022-10-16T00:30:37;14.10;99.90
23283;DHT22;11810;51.178;3.878;2022-10-16T00:33:03;13.90;99.90
23283;DHT22;11810;51.178;3.878;2022-10-16T00:35:30;14.10;99.90
23283;DHT22;11810;51.178;3.878;2022-10-16T00:37:56;14.00;99.90
23283;DHT22;11810;51.178;3.878;2022-10-16T00:40:22;13.90;99.90
23283;DHT22;11810;51.178;3.878;2022-10-16T00:42:48;13.70;99.90
23283;DHT22;11810;51.178;3.878;2022-10-16T00:45:14;13.80;99.90
23283;DHT22;11810;51.178;3.878;2022-10-16T00:47:45;13.70;99.90
23283;DHT22;11810;51.178;3.878;2022-10-16T00:50:28;13.70;99.90
23283;DHT22;11810;51.178;3.878;2022-10-16T00:52:56;13.70;99.90
23283;DHT22;11810;51.178;3.878;2022-10-16T00:55:24;13.70;99.90
23283;DHT22;11810;51.178;3.878;2022-10-16T00:57:50;13.60;99.90
23283;DHT22;11810;51.178;3.878;2022-10-16T01:00:23;13.40;99.90
23283;DHT22;11810;51.178;3.878;2022-10-16T01:02:58;13.20;99.90
23283;DHT22;11810;51.178;3.878;2022-10-16T01:05:41;13.20;99.90
23283;DHT22;11810;51.178;3.878;2022-10-16T01:08:23;13.20;99.90
23283;DHT22;11810;51.178;3.878;2022-10-16T01:11:11;13.20;99.90
23283;DHT22;11810;51.178;3.878;2022-10-16T01:13:44;13.20;99.90
23283;DHT22;11810;51.178;3.878;2022-10-16T01:19:09;13.00;99.90
23283;DHT22;11810;51.178;3.878;2022-10-16T01:21:39;13.20;99.90
23283;DHT22;11810;51.178;3.878;2022-10-16T01:24:37;13.20;99.90
23283;DHT22;11810;51.178;3.878;2022-10-16T01:29:42;13.00;99.90
23283;DHT22;11810;51.178;3.878;2022-10-16T01:34:53;12.90;99.90
23283;DHT22;11810;51.178;3.878;2022-10-16T01:37:32;13.00;99.90
23283;DHT22;11810;51.178;3.878;2022-10-16T01:40:04;13.10;99.90
23283;DHT22;11810;51.178;3.878;2022-10-16T01:42:39;13.00;99.90
23283;DHT22;11810;51.178;3.878;2022-10-16T01:45:07;13.00;99.90
23283;DHT22;11810;51.178;3.878;2022-10-16T01:47:37;13.00;99.90
23283;DHT22;11810;51.178;3.878;2022-10-16T01:50:05;12.90;99.90
23283;DHT22;11810;51.178;3.878;2022-10-16T01:52:37;13.00;99.90
23283;DHT22;11810;51.178;3.878;2022-10-16T01:55:06;13.00;99.90
23283;DHT22;11810;51.178;3.878;2022-10-16T01:57:35;13.10;99.90
23283;DHT22;11810;51.178;3.878;2022-10-16T02:00:09;13.10;99.90
23283;DHT22;11810;51.178;3.878;2022-10-16T02:02:36;13.20;99.90
23283;DHT22;11810;51.178;3.878;2022-10-16T02:05:30;13.20;99.90
23283;DHT22;11810;51.178;3.878;2022-10-16T02:07:57;13.10;99.90
23283;DHT22;11810;51.178;3.878;2022-10-16T02:10:24;13.10;99.90
23283;DHT22;11810;51.178;3.878;2022-10-16T02:13:58;13.10;99.90
23283;DHT22;11810;51.178;3.878;2022-10-16T02:15:51;13.10;99.90
23283;DHT22;11810;51.178;3.878;2022-10-16T02:18:16;13.20;99.90
23283;DHT22;11810;51.178;3.878;2022-10-16T02:20:48;13.20;99.90
23283;DHT22;11810;51.178;3.878;2022-10-16T02:23:23;13.20;99.90
23283;DHT22;11810;51.178;3.878;2022-10-16T02:25:51;13.10;99.90
23283;DHT22;11810;51.178;3.878;2022-10-16T02:28:24;13.10;99.90
23283;DHT22;11810;51.178;3.878;2022-10-16T02:30:58;13.10;99.90
23283;DHT22;11810;51.178;3.878;2022-10-16T02:33:26;13.20;99.90
23283;DHT22;11810;51.178;3.878;2022-10-16T02:35:54;13.20;99.90
23283;DHT22;11810;51.178;3.878;2022-10-16T02:38:21;13.30;99.90
23283;DHT22;11810;51.178;3.878;2022-10-16T02:40:48;13.40;99.90
23283;DHT22;11810;51.178;3.878;2022-10-16T02:43:15;13.40;99.90
23283;DHT22;11810;51.178;3.878;2022-10-16T02:45:41;13.30;99.90
23283;DHT22;11810;51.178;3.878;2022-10-16T02:48:07;13.40;99.90
23283;DHT22;11810;51.178;3.878;2022-10-16T02:50:34;13.40;99.90
23283;DHT22;11810;51.178;3.878;2022-10-16T02:52:59;13.40;99.90
23283;DHT22;11810;51.178;3.878;2022-10-16T02:55:26;13.30;99.90
23283;DHT22;11810;51.178;3.878;2022-10-16T02:57:53;13.30;99.90
23283;DHT22;11810;51.178;3.878;2022-10-16T03:00:20;13.30;99.90
23283;DHT22;11810;51.178;3.878;2022-10-16T03:02:46;13.30;99.90
23283;DHT22;11810;51.178;3.878;2022-10-16T03:05:12;13.30;99.90
23283;DHT22;11810;51.178;3.878;2022-10-16T03:07:39;13.30;99.90
23283;DHT22;11810;51.178;3.878;2022-10-16T03:10:05;13.40;99.90
23283;DHT22;11810;51.178;3.878;2022-10-16T03:12:31;13.40;99.90
23283;DHT22;11810;51.178;3.878;2022-10-16T03:14:57;13.40;99.90
23283;DHT22;11810;51.178;3.878;2022-10-16T03:17:24;13.30;99.90
23283;DHT22;11810;51.178;3.878;2022-10-16T03:19:50;13.30;99.90
23283;DHT22;11810;51.178;3.878;2022-10-16T03:22:16;13.30;99.90
23283;DHT22;11810;51.178;3.878;2022-10-16T03:24:42;13.30;99.90
23283;DHT22;11810;51.178;3.878;2022-10-16T03:27:08;13.30;99.90
23283;DHT22;11810;51.178;3.878;2022-10-16T03:29:34;13.30;99.90
23283;DHT22;11810;51.178;3.878;2022-10-16T03:32:00;13.30;99.90
23283;DHT22;11810;51.178;3.878;2022-10-16T03:34:26;13.30;99.90
23283;DHT22;11810;51.178;3.878;2022-10-16T03:36:52;13.30;99.90
23283;DHT22;11810;51.178;3.878;2022-10-16T03:39:18;13.30;99.90
23283;DHT22;11810;51.178;3.878;2022-10-16T03:41:44;13.20;99.90
23283;DHT22;11810;51.178;3.878;2022-10-16T03:44:12;13.10;99.90
23283;DHT22;11810;51.178;3.878;2022-10-16T03:46:38;13.20;99.90
23283;DHT22;11810;51.178;3.878;2022-10-16T03:49:04;13.10;99.90
23283;DHT22;11810;51.178;3.878;2022-10-16T03:51:30;13.20;99.90
23283;DHT22;11810;51.178;3.878;2022-10-16T03:53:56;13.20;99.90
23283;DHT22;11810;51.178;3.878;2022-10-16T03:56:22;13.10;99.90
23283;DHT22;11810;51.178;3.878;2022-10-16T03:58:48;13.10;99.90
23283;DHT22;11810;51.178;3.878;2022-10-16T04:01:15;13.10;99.90
23283;DHT22;11810;51.178;3.878;2022-10-16T04:03:41;13.10;99.90
23283;DHT22;11810;51.178;3.878;2022-10-16T04:06:07;13.20;99.90
23283;DHT22;11810;51.178;3.878;2022-10-16T04:08:33;13.10;99.90
23283;DHT22;11810;51.178;3.878;2022-10-16T04:11:02;13.10;99.90
23283;DHT22;11810;51.178;3.878;2022-10-16T04:13:28;13.10;99.90
23283;DHT22;11810;51.178;3.878;2022-10-16T04:15:54;13.00;99.90
23283;DHT22;11810;51.178;3.878;2022-10-16T04:18:20;13.00;99.90
23283;DHT22;11810;51.178;3.878;2022-10-16T04:20:46;12.90;99.90
23283;DHT22;11810;51.178;3.878;2022-10-16T04:23:12;12.90;99.90
23283;DHT22;11810;51.178;3.878;2022-10-16T04:25:38;12.90;99.90
23283;DHT22;11810;51.178;3.878;2022-10-16T04:28:04;12.90;99.90
23283;DHT22;11810;51.178;3.878;2022-10-16T04:30:30;12.90;99.90
23283;DHT22;11810;51.178;3.878;2022-10-16T04:32:56;12.90;99.90
23283;DHT22;11810;51.178;3.878;2022-10-16T04:35:22;12.90;99.90
23283;DHT22;11810;51.178;3.878;2022-10-16T04:37:48;12.90;99.90
23283;DHT22;11810;51.178;3.878;2022-10-16T04:40:14;12.90;99.90
23283;DHT22;11810;51.178;3.878;2022-10-16T04:42:40;12.80;99.90
23283;DHT22;11810;51.178;3.878;2022-10-16T04:45:07;12.80;99.90
23283;DHT22;11810;51.178;3.878;2022-10-16T04:47:33;12.80;99.90
23283;DHT22;11810;51.178;3.878;2022-10-16T04:49:59;12.80;99.90
23283;DHT22;11810;51.178;3.878;2022-10-16T04:52:28;12.90;99.90
23283;DHT22;11810;51.178;3.878;2022-10-16T04:54:54;12.90;99.90
23283;DHT22;11810;51.178;3.878;2022-10-16T04:57:21;12.90;99.90
23283;DHT22;11810;51.178;3.878;2022-10-16T04:59:48;12.90;99.90
23283;DHT22;11810;51.178;3.878;2022-10-16T05:02:14;12.90;99.90
23283;DHT22;11810;51.178;3.878;2022-10-16T05:04:39;12.80;99.90
23283;DHT22;11810;51.178;3.878;2022-10-16T05:07:05;12.80;99.90
23283;DHT22;11810;51.178;3.878;2022-10-16T05:09:31;12.90;99.90
23283;DHT22;11810;51.178;3.878;2022-10-16T05:11:57;12.80;99.90
23283;DHT22;11810;51.178;3.878;2022-10-16T05:14:23;12.80;99.90
23283;DHT22;11810;51.178;3.878;2022-10-16T05:16:49;12.90;99.90
23283;DHT22;11810;51.178;3.878;2022-10-16T05:19:15;12.80;99.90
23283;DHT22;11810;51.178;3.878;2022-10-16T05:21:40;12.80;99.90
23283;DHT22;11810;51.178;3.878;2022-10-16T05:24:06;12.80;99.90
23283;DHT22;11810;51.178;3.878;2022-10-16T05:26:32;12.90;99.90
23283;DHT22;11810;51.178;3.878;2022-10-16T05:28:58;12.90;99.90
23283;DHT22;11810;51.178;3.878;2022-10-16T05:31:24;12.90;99.90
23283;DHT22;11810;51.178;3.878;2022-10-16T05:33:50;13.00;99.90
23283;DHT22;11810;51.178;3.878;2022-10-16T05:36:16;13.10;99.90
23283;DHT22;11810;51.178;3.878;2022-10-16T05:38:44;13.30;99.90
23283;DHT22;11810;51.178;3.878;2022-10-16T05:41:09;13.50;99.90
23283;DHT22;11810;51.178;3.878;2022-10-16T05:43:35;13.40;99.90
23283;DHT22;11810;51.178;3.878;2022-10-16T05:46:04;13.60;99.90
23283;DHT22;11810;51.178;3.878;2022-10-16T05:48:31;13.50;99.90
23283;DHT22;11810;51.178;3.878;2022-10-16T05:50:59;13.60;99.90
23283;DHT22;11810;51.178;3.878;2022-10-16T05:53:27;13.60;99.90
23283;DHT22;11810;51.178;3.878;2022-10-16T05:55:54;13.60;99.90
23283;DHT22;11810;51.178;3.878;2022-10-16T05:58:20;13.60;99.90
23283;DHT22;11810;51.178;3.878;2022-10-16T06:00:53;13.40;99.90
23283;DHT22;11810;51.178;3.878;2022-10-16T06:03:19;13.30;99.90
23283;DHT22;11810;51.178;3.878;2022-10-16T06:05:45;13.30;99.90
23283;DHT22;11810;51.178;3.878;2022-10-16T06:08:11;13.40;99.90
23283;DHT22;11810;51.178;3.878;2022-10-16T06:10:37;13.30;99.90
23283;DHT22;11810;51.178;3.878;2022-10-16T06:13:03;13.30;99.90
23283;DHT22;11810;51.178;3.878;2022-10-16T06:15:29;13.20;99.90
23283;DHT22;11810;51.178;3.878;2022-10-16T06:17:55;13.40;99.90
23283;DHT22;11810;51.178;3.878;2022-10-16T06:20:21;13.20;99.90
23283;DHT22;11810;51.178;3.878;2022-10-16T06:22:47;13.20;99.90
23283;DHT22;11810;51.178;3.878;2022-10-16T06:25:12;13.20;99.90
23283;DHT22;11810;51.178;3.878;2022-10-16T06:27:41;13.20;99.90
23283;DHT22;11810;51.178;3.878;2022-10-16T06:30:08;13.30;99.90
23283;DHT22;11810;51.178;3.878;2022-10-16T06:32:34;13.40;99.90
23283;DHT22;11810;51.178;3.878;2022-10-16T06:35:00;13.50;99.90
23283;DHT22;11810;51.178;3.878;2022-10-16T06:37:27;13.60;99.90
23283;DHT22;11810;51.178;3.878;2022-10-16T06:39:53;13.50;99.90
23283;DHT22;11810;51.178;3.878;2022-10-16T06:42:19;13.60;99.90
23283;DHT22;11810;51.178;3.878;2022-10-16T06:44:45;13.70;99.90
23283;DHT22;11810;51.178;3.878;2022-10-16T06:47:11;13.90;99.90
23283;DHT22;11810;51.178;3.878;2022-10-16T06:49:37;14.00;99.90
23283;DHT22;11810;51.178;3.878;2022-10-16T06:52:03;14.00;99.90
23283;DHT22;11810;51.178;3.878;2022-10-16T06:54:29;14.00;99.90
23283;DHT22;11810;51.178;3.878;2022-10-16T06:56:55;14.30;99.90
23283;DHT22;11810;51.178;3.878;2022-10-16T06:59:21;14.20;99.90
23283;DHT22;11810;51.178;3.878;2022-10-16T07:01:47;14.10;99.90
23283;DHT22;11810;51.178;3.878;2022-10-16T07:04:13;14.30;99.90
23283;DHT22;11810;51.178;3.878;2022-10-16T07:06:40;14.30;99.90
23283;DHT22;11810;51.178;3.878;2022-10-16T07:09:09;14.60;99.90
23283;DHT22;11810;51.178;3.878;2022-10-16T07:11:37;14.80;99.90
23283;DHT22;11810;51.178;3.878;2022-10-16T07:14:04;14.80;99.90
23283;DHT22;11810;51.178;3.878;2022-10-16T07:16:31;15.50;99.90
23283;DHT22;11810;51.178;3.878;2022-10-16T07:18:59;16.30;99.90
23283;DHT22;11810;51.178;3.878;2022-10-16T07:21:27;16.80;99.90
23283;DHT22;11810;51.178;3.878;2022-10-16T07:23:57;16.90;99.90
23283;DHT22;11810;51.178;3.878;2022-10-16T07:26:23;17.40;99.90
23283;DHT22;11810;51.178;3.878;2022-10-16T07:28:50;17.90;99.90
23283;DHT22;11810;51.178;3.878;2022-10-16T07:31:18;18.40;99.90
23283;DHT22;11810;51.178;3.878;2022-10-16T07:33:45;18.60;99.90
23283;DHT22;11810;51.178;3.878;2022-10-16T07:36:15;19.00;99.90
23283;DHT22;11810;51.178;3.878;2022-10-16T07:38:41;18.60;99.90
23283;DHT22;11810;51.178;3.878;2022-10-16T07:41:10;18.50;99.90
23283;DHT22;11810;51.178;3.878;2022-10-16T07:43:37;18.00;99.90
23283;DHT22;11810;51.178;3.878;2022-10-16T07:46:04;17.30;99.90
23283;DHT22;11810;51.178;3.878;2022-10-16T07:48:32;16.70;99.90
23283;DHT22;11810;51.178;3.878;2022-10-16T07:50:59;16.80;99.90
23283;DHT22;11810;51.178;3.878;2022-10-16T07:53:26;17.10;99.90
23283;DHT22;11810;51.178;3.878;2022-10-16T07:55:54;17.60;99.90
23283;DHT22;11810;51.178;3.878;2022-10-16T07:58:22;18.00;99.90
23283;DHT22;11810;51.178;3.878;2022-10-16T08:00:48;18.80;99.90
23283;DHT22;11810;51.178;3.878;2022-10-16T08:03:14;19.60;99.90
23283;DHT22;11810;51.178;3.878;2022-10-16T08:05:40;20.20;99.90
23283;DHT22;11810;51.178;3.878;2022-10-16T08:08:05;20.70;99.90
23283;DHT22;11810;51.178;3.878;2022-10-16T08:10:31;21.00;99.90
23283;DHT22;11810;51.178;3.878;2022-10-16T08:12:57;20.20;99.90
23283;DHT22;11810;51.178;3.878;2022-10-16T08:15:24;19.70;99.90
23283;DHT22;11810;51.178;3.878;2022-10-16T08:18:00;19.20;99.90
23283;DHT22;11810;51.178;3.878;2022-10-16T08:20:27;18.80;99.90
23283;DHT22;11810;51.178;3.878;2022-10-16T08:22:54;18.70;99.90
23283;DHT22;11810;51.178;3.878;2022-10-16T08:25:21;18.70;99.90
23283;DHT22;11810;51.178;3.878;2022-10-16T08:27:47;18.90;99.90
23283;DHT22;11810;51.178;3.878;2022-10-16T08:30:14;19.10;99.90
23283;DHT22;11810;51.178;3.878;2022-10-16T08:32:40;18.90;99.90
23283;DHT22;11810;51.178;3.878;2022-10-16T08:35:10;19.10;99.90
23283;DHT22;11810;51.178;3.878;2022-10-16T08:37:36;19.20;99.90
23283;DHT22;11810;51.178;3.878;2022-10-16T08:40:04;19.20;99.90
23283;DHT22;11810;51.178;3.878;2022-10-16T08:50:12;20.60;99.90
23283;DHT22;11810;51.178;3.878;2022-10-16T08:52:41;21.90;99.90
23283;DHT22;11810;51.178;3.878;2022-10-16T08:55:38;22.50;99.90
23283;DHT22;11810;51.178;3.878;2022-10-16T08:58:19;22.10;99.90
23283;DHT22;11810;51.178;3.878;2022-10-16T09:00:54;22.20;99.90
23283;DHT22;11810;51.178;3.878;2022-10-16T09:06:32;22.10;99.90
23283;DHT22;11810;51.178;3.878;2022-10-16T09:14:40;22.20;99.90
23283;DHT22;11810;51.178;3.878;2022-10-16T09:25:48;23.60;99.90
23283;DHT22;11810;51.178;3.878;2022-10-16T09:28:16;23.70;99.90
23283;DHT22;11810;51.178;3.878;2022-10-16T09:30:42;23.70;99.90
23283;DHT22;11810;51.178;3.878;2022-10-16T09:33:10;23.60;99.90
23283;DHT22;11810;51.178;3.878;2022-10-16T09:35:45;23.40;99.90
23283;DHT22;11810;51.178;3.878;2022-10-16T09:38:28;22.70;99.90
23283;DHT22;11810;51.178;3.878;2022-10-16T09:40:57;23.10;99.90
23283;DHT22;11810;51.178;3.878;2022-10-16T09:43:48;23.50;99.90
23283;DHT22;11810;51.178;3.878;2022-10-16T09:49:04;25.60;99.90
23283;DHT22;11810;51.178;3.878;2022-10-16T09:51:33;25.40;99.90
23283;DHT22;11810;51.178;3.878;2022-10-16T09:54:20;25.70;99.90
23283;DHT22;11810;51.178;3.878;2022-10-16T09:56:47;26.10;99.90
23283;DHT22;11810;51.178;3.878;2022-10-16T09:59:19;25.10;99.90
23283;DHT22;11810;51.178;3.878;2022-10-16T10:01:51;24.40;99.90
23283;DHT22;11810;51.178;3.878;2022-10-16T10:04:19;24.70;99.90
23283;DHT22;11810;51.178;3.878;2022-10-16T10:06:50;25.00;99.90
23283;DHT22;11810;51.178;3.878;2022-10-16T10:09:28;24.50;99.90
23283;DHT22;11810;51.178;3.878;2022-10-16T10:11:58;24.00;99.90
23283;DHT22;11810;51.178;3.878;2022-10-16T10:14:47;23.50;99.90
23283;DHT22;11810;51.178;3.878;2022-10-16T10:17:24;23.40;99.90
23283;DHT22;11810;51.178;3.878;2022-10-16T10:20:13;23.30;99.90
23283;DHT22;11810;51.178;3.878;2022-10-16T10:22:43;24.10;99.90
23283;DHT22;11810;51.178;3.878;2022-10-16T10:27:52;23.30;99.90
23283;DHT22;11810;51.178;3.878;2022-10-16T10:30:42;23.30;99.90
23283;DHT22;11810;51.178;3.878;2022-10-16T10:38:38;22.90;99.90
23283;DHT22;11810;51.178;3.878;2022-10-16T10:46:58;25.90;99.90
23283;DHT22;11810;51.178;3.878;2022-10-16T11:06:10;29.30;99.90
23283;DHT22;11810;51.178;3.878;2022-10-16T11:08:52;29.20;99.90
23283;DHT22;11810;51.178;3.878;2022-10-16T11:11:24;29.90;99.90
23283;DHT22;11810;51.178;3.878;2022-10-16T11:14:06;29.90;99.90
23283;DHT22;11810;51.178;3.878;2022-10-16T11:17:28;30.20;99.90
23283;DHT22;11810;51.178;3.878;2022-10-16T11:24:45;31.50;99.90
23283;DHT22;11810;51.178;3.878;2022-10-16T11:27:15;31.00;99.90
23283;DHT22;11810;51.178;3.878;2022-10-16T11:29:57;31.40;99.90
23283;DHT22;11810;51.178;3.878;2022-10-16T11:32:41;30.90;99.90
23283;DHT22;11810;51.178;3.878;2022-10-16T11:35:19;30.50;99.90
23283;DHT22;11810;51.178;3.878;2022-10-16T11:37:49;30.20;99.90
23283;DHT22;11810;51.178;3.878;2022-10-16T11:40:27;28.90;99.90
23283;DHT22;11810;51.178;3.878;2022-10-16T11:45:58;26.90;99.90
23283;DHT22;11810;51.178;3.878;2022-10-16T11:48:36;26.40;99.90
23283;DHT22;11810;51.178;3.878;2022-10-16T11:51:11;27.00;99.90
23283;DHT22;11810;51.178;3.878;2022-10-16T11:56:32;28.90;99.90
23283;DHT22;11810;51.178;3.878;2022-10-16T11:59:14;29.40;99.90
23283;DHT22;11810;51.178;3.878;2022-10-16T12:05:25;30.20;99.90
23283;DHT22;11810;51.178;3.878;2022-10-16T12:07:38;30.20;99.90
23283;DHT22;11810;51.178;3.878;2022-10-16T12:10:26;29.10;99.90
23283;DHT22;11810;51.178;3.878;2022-10-16T12:12:53;28.20;99.90
23283;DHT22;11810;51.178;3.878;2022-10-16T12:15:22;27.90;99.90
23283;DHT22;11810;51.178;3.878;2022-10-16T12:17:49;27.40;99.90
23283;DHT22;11810;51.178;3.878;2022-10-16T12:20:30;27.30;99.90
23283;DHT22;11810;51.178;3.878;2022-10-16T12:23:00;27.40;99.90
23283;DHT22;11810;51.178;3.878;2022-10-16T12:25:30;26.60;99.90
23283;DHT22;11810;51.178;3.878;2022-10-16T12:30:42;25.40;99.90
23283;DHT22;11810;51.178;3.878;2022-10-16T12:33:25;25.00;99.90
23283;DHT22;11810;51.178;3.878;2022-10-16T12:35:51;24.70;99.90
23283;DHT22;11810;51.178;3.878;2022-10-16T12:41:28;26.40;99.90
23283;DHT22;11810;51.178;3.878;2022-10-16T12:43:54;26.40;99.90
23283;DHT22;11810;51.178;3.878;2022-10-16T12:49:06;26.30;99.90
23283;DHT22;11810;51.178;3.878;2022-10-16T12:51:37;25.90;99.90
23283;DHT22;11810;51.178;3.878;2022-10-16T12:54:40;25.00;99.90
23283;DHT22;11810;51.178;3.878;2022-10-16T13:13:51;21.90;99.90
23283;DHT22;11810;51.178;3.878;2022-10-16T13:19:51;21.70;99.90
23283;DHT22;11810;51.178;3.878;2022-10-16T13:22:15;21.60;99.90
23283;DHT22;11810;51.178;3.878;2022-10-16T13:25:02;21.30;99.90
23283;DHT22;11810;51.178;3.878;2022-10-16T13:28:04;21.10;99.90
23283;DHT22;11810;51.178;3.878;2022-10-16T13:30:44;21.20;99.90
23283;DHT22;11810;51.178;3.878;2022-10-16T13:33:39;21.00;99.90
23283;DHT22;11810;51.178;3.878;2022-10-16T13:36:22;21.10;99.90
23283;DHT22;11810;51.178;3.878;2022-10-16T13:38:48;21.20;99.90
23283;DHT22;11810;51.178;3.878;2022-10-16T13:41:17;21.10;99.90
23283;DHT22;11810;51.178;3.878;2022-10-16T13:43:52;21.10;99.90
23283;DHT22;11810;51.178;3.878;2022-10-16T13:46:21;21.20;99.90
23283;DHT22;11810;51.178;3.878;2022-10-16T13:48:58;21.20;99.90
23283;DHT22;11810;51.178;3.878;2022-10-16T13:51:24;21.30;99.90
23283;DHT22;11810;51.178;3.878;2022-10-16T13:53:51;21.40;99.90
23283;DHT22;11810;51.178;3.878;2022-10-16T13:56:19;21.30;99.90
23283;DHT22;11810;51.178;3.878;2022-10-16T13:58:46;21.30;99.90
23283;DHT22;11810;51.178;3.878;2022-10-16T14:01:26;21.20;99.90
23283;DHT22;11810;51.178;3.878;2022-10-16T14:04:03;20.90;99.90
23283;DHT22;11810;51.178;3.878;2022-10-16T14:06:31;20.90;99.90
23283;DHT22;11810;51.178;3.878;2022-10-16T14:11:27;20.60;99.90
23283;DHT22;11810;51.178;3.878;2022-10-16T14:13:53;20.80;99.90
23283;DHT22;11810;51.178;3.878;2022-10-16T14:16:22;20.80;99.90
23283;DHT22;11810;51.178;3.878;2022-10-16T14:21:22;20.60;99.90
23283;DHT22;11810;51.178;3.878;2022-10-16T14:23:48;20.60;99.90
23283;DHT22;11810;51.178;3.878;2022-10-16T14:26:17;20.70;99.90
23283;DHT22;11810;51.178;3.878;2022-10-16T14:28:44;20.60;99.90
23283;DHT22;11810;51.178;3.878;2022-10-16T14:33:45;20.80;99.90
23283;DHT22;11810;51.178;3.878;2022-10-16T14:36:12;20.70;99.90
23283;DHT22;11810;51.178;3.878;2022-10-16T14:38:47;20.70;99.90
23283;DHT22;11810;51.178;3.878;2022-10-16T14:41:13;20.60;99.90
23283;DHT22;11810;51.178;3.878;2022-10-16T14:43:42;20.70;99.90
23283;DHT22;11810;51.178;3.878;2022-10-16T14:46:19;20.40;99.90
23283;DHT22;11810;51.178;3.878;2022-10-16T14:48:48;20.20;99.90
23283;DHT22;11810;51.178;3.878;2022-10-16T14:51:18;20.10;99.90
23283;DHT22;11810;51.178;3.878;2022-10-16T14:53:45;20.10;99.90
23283;DHT22;11810;51.178;3.878;2022-10-16T14:56:23;20.00;99.90
23283;DHT22;11810;51.178;3.878;2022-10-16T14:58:51;20.00;99.90
23283;DHT22;11810;51.178;3.878;2022-10-16T15:01:17;19.90;99.90
23283;DHT22;11810;51.178;3.878;2022-10-16T15:03:43;19.90;99.90
23283;DHT22;11810;51.178;3.878;2022-10-16T15:06:15;19.90;99.90
23283;DHT22;11810;51.178;3.878;2022-10-16T15:08:41;19.80;99.90
23283;DHT22;11810;51.178;3.878;2022-10-16T15:11:15;19.80;99.90
23283;DHT22;11810;51.178;3.878;2022-10-16T15:13:42;19.70;99.90
23283;DHT22;11810;51.178;3.878;2022-10-16T15:16:11;19.50;99.90
23283;DHT22;11810;51.178;3.878;2022-10-16T15:18:37;19.40;99.90
23283;DHT22;11810;51.178;3.878;2022-10-16T15:21:03;19.30;99.90
23283;DHT22;11810;51.178;3.878;2022-10-16T15:23:29;19.40;99.90
23283;DHT22;11810;51.178;3.878;2022-10-16T15:25:56;19.30;99.90
23283;DHT22;11810;51.178;3.878;2022-10-16T15:28:24;19.40;99.90
23283;DHT22;11810;51.178;3.878;2022-10-16T15:30:52;19.40;99.90
23283;DHT22;11810;51.178;3.878;2022-10-16T15:33:21;19.40;99.90
23283;DHT22;11810;51.178;3.878;2022-10-16T15:35:52;19.20;99.90
23283;DHT22;11810;51.178;3.878;2022-10-16T15:38:19;19.20;99.90
23283;DHT22;11810;51.178;3.878;2022-10-16T15:40:46;19.20;99.90
23283;DHT22;11810;51.178;3.878;2022-10-16T15:43:13;19.10;99.90
23283;DHT22;11810;51.178;3.878;2022-10-16T15:45:39;18.90;99.90
23283;DHT22;11810;51.178;3.878;2022-10-16T15:48:05;18.90;99.90
23283;DHT22;11810;51.178;3.878;2022-10-16T15:50:32;19.00;99.90
23283;DHT22;11810;51.178;3.878;2022-10-16T15:52:58;18.90;99.90
23283;DHT22;11810;51.178;3.878;2022-10-16T15:55:24;18.90;99.90
23283;DHT22;11810;51.178;3.878;2022-10-16T15:57:50;18.80;99.90
23283;DHT22;11810;51.178;3.878;2022-10-16T16:00:18;18.70;99.90
23283;DHT22;11810;51.178;3.878;2022-10-16T16:02:50;18.60;99.90
23283;DHT22;11810;51.178;3.878;2022-10-16T16:05:17;18.50;99.90
23283;DHT22;11810;51.178;3.878;2022-10-16T16:07:43;18.50;99.90
23283;DHT22;11810;51.178;3.878;2022-10-16T16:10:10;18.40;99.90
23283;DHT22;11810;51.178;3.878;2022-10-16T16:12:37;18.30;99.90
23283;DHT22;11810;51.178;3.878;2022-10-16T16:15:05;18.20;99.90
23283;DHT22;11810;51.178;3.878;2022-10-16T16:17:32;18.10;99.90
23283;DHT22;11810;51.178;3.878;2022-10-16T16:19:58;18.10;99.90
23283;DHT22;11810;51.178;3.878;2022-10-16T16:22:24;18.10;99.90
23283;DHT22;11810;51.178;3.878;2022-10-16T16:24:50;18.20;99.90
23283;DHT22;11810;51.178;3.878;2022-10-16T16:27:16;18.10;99.90
23283;DHT22;11810;51.178;3.878;2022-10-16T16:29:42;18.10;99.90
23283;DHT22;11810;51.178;3.878;2022-10-16T16:32:08;17.90;99.90
23283;DHT22;11810;51.178;3.878;2022-10-16T16:34:34;17.90;99.90
23283;DHT22;11810;51.178;3.878;2022-10-16T16:37:00;17.90;99.90
23283;DHT22;11810;51.178;3.878;2022-10-16T16:39:26;17.80;99.90
23283;DHT22;11810;51.178;3.878;2022-10-16T16:41:52;17.80;99.90
23283;DHT22;11810;51.178;3.878;2022-10-16T16:44:18;17.80;99.90
23283;DHT22;11810;51.178;3.878;2022-10-16T16:46:44;17.80;99.90
23283;DHT22;11810;51.178;3.878;2022-10-16T16:49:12;17.70;99.90
23283;DHT22;11810;51.178;3.878;2022-10-16T16:51:38;17.60;99.90
23283;DHT22;11810;51.178;3.878;2022-10-16T16:54:05;17.50;99.90
23283;DHT22;11810;51.178;3.878;2022-10-16T16:56:33;17.30;99.90
23283;DHT22;11810;51.178;3.878;2022-10-16T16:58:59;17.40;99.90
23283;DHT22;11810;51.178;3.878;2022-10-16T17:01:26;17.30;99.90
23283;DHT22;11810;51.178;3.878;2022-10-16T17:03:54;17.30;99.90
23283;DHT22;11810;51.178;3.878;2022-10-16T17:06:23;17.20;99.90
23283;DHT22;11810;51.178;3.878;2022-10-16T17:08:49;17.20;99.90
23283;DHT22;11810;51.178;3.878;2022-10-16T17:11:19;17.10;99.90
23283;DHT22;11810;51.178;3.878;2022-10-16T17:13:46;17.00;99.90
23283;DHT22;11810;51.178;3.878;2022-10-16T17:16:12;17.10;99.90
23283;DHT22;11810;51.178;3.878;2022-10-16T17:18:38;17.00;99.90
23283;DHT22;11810;51.178;3.878;2022-10-16T17:21:06;16.90;99.90
23283;DHT22;11810;51.178;3.878;2022-10-16T17:23:33;16.80;99.90
23283;DHT22;11810;51.178;3.878;2022-10-16T17:26:13;16.80;99.90
23283;DHT22;11810;51.178;3.878;2022-10-16T17:28:40;16.80;99.90
23283;DHT22;11810;51.178;3.878;2022-10-16T17:31:18;17.00;99.90
23283;DHT22;11810;51.178;3.878;2022-10-16T17:33:45;17.20;99.90
23283;DHT22;11810;51.178;3.878;2022-10-16T17:36:11;17.20;99.90
23283;DHT22;11810;51.178;3.878;2022-10-16T17:38:40;17.10;99.90
23283;DHT22;11810;51.178;3.878;2022-10-16T17:41:13;17.10;99.90